sensor_id;sensor_type;location;lat;lon;timestamp;P1;durP1;ratioP1;P2;durP2;ratioP2
52380;SDS011;38310;52.796;6.942;2023-06-22T00:00:50;42.75;;;35.00;;
52380;SDS011;38310;52.796;6.942;2023-06-22T00:03:17;42.13;;;36.50;;
52380;SDS011;38310;52.796;6.942;2023-06-22T00:05:44;41.72;;;35.35;;
52380;SDS011;38310;52.796;6.942;2023-06-22T00:08:11;38.97;;;33.53;;
52380;SDS011;38310;52.796;6.942;2023-06-22T00:10:37;37.95;;;32.15;;
52380;SDS011;38310;52.796;6.942;2023-06-22T00:13:03;39.25;;;31.27;;
52380;SDS011;38310;52.796;6.942;2023-06-22T00:15:29;39.25;;;33.20;;
52380;SDS011;38310;52.796;6.942;2023-06-22T00:17:55;42.58;;;36.92;;
52380;SDS011;38310;52.796;6.942;2023-06-22T00:20:22;43.20;;;36.50;;
52380;SDS011;38310;52.796;6.942;2023-06-22T00:22:52;42.13;;;35.83;;
52380;SDS011;38310;52.796;6.942;2023-06-22T00:25:19;42.92;;;36.70;;
52380;SDS011;38310;52.796;6.942;2023-06-22T00:27:45;46.15;;;39.03;;
52380;SDS011;38310;52.796;6.942;2023-06-22T00:30:10;44.70;;;39.20;;
52380;SDS011;38310;52.796;6.942;2023-06-22T00:32:36;38.63;;;33.53;;
52380;SDS011;38310;52.796;6.942;2023-06-22T00:35:02;38.75;;;32.25;;
52380;SDS011;38310;52.796;6.942;2023-06-22T00:37:28;39.72;;;34.17;;
52380;SDS011;38310;52.796;6.942;2023-06-22T00:39:54;43.50;;;37.95;;
52380;SDS011;38310;52.796;6.942;2023-06-22T00:42:20;43.17;;;36.50;;
52380;SDS011;38310;52.796;6.942;2023-06-22T00:44:46;43.35;;;37.83;;
52380;SDS011;38310;52.796;6.942;2023-06-22T00:47:16;43.00;;;38.35;;
52380;SDS011;38310;52.796;6.942;2023-06-22T00:49:43;45.03;;;38.17;;
52380;SDS011;38310;52.796;6.942;2023-06-22T00:52:09;49.00;;;41.20;;
52380;SDS011;38310;52.796;6.942;2023-06-22T00:54:42;50.00;;;41.92;;
52380;SDS011;38310;52.796;6.942;2023-06-22T00:57:14;41.83;;;36.60;;
52380;SDS011;38310;52.796;6.942;2023-06-22T00:59:44;48.50;;;41.17;;
52380;SDS011;38310;52.796;6.942;2023-06-22T01:02:11;53.25;;;43.90;;
52380;SDS011;38310;52.796;6.942;2023-06-22T01:04:37;44.83;;;38.67;;
52380;SDS011;38310;52.796;6.942;2023-06-22T01:10:17;52.60;;;43.15;;
52380;SDS011;38310;52.796;6.942;2023-06-22T01:12:58;46.38;;;40.42;;
52380;SDS011;38310;52.796;6.942;2023-06-22T01:16:30;49.60;;;43.25;;
52380;SDS011;38310;52.796;6.942;2023-06-22T01:18:28;50.88;;;41.53;;
52380;SDS011;38310;52.796;6.942;2023-06-22T01:20:58;47.78;;;41.20;;
52380;SDS011;38310;52.796;6.942;2023-06-22T01:23:29;48.75;;;42.90;;
52380;SDS011;38310;52.796;6.942;2023-06-22T01:29:00;51.17;;;44.92;;
52380;SDS011;38310;52.796;6.942;2023-06-22T01:31:28;48.88;;;41.30;;
52380;SDS011;38310;52.796;6.942;2023-06-22T01:33:57;48.53;;;40.20;;
52380;SDS011;38310;52.796;6.942;2023-06-22T01:36:25;49.08;;;42.13;;
52380;SDS011;38310;52.796;6.942;2023-06-22T01:38:52;54.83;;;43.10;;
52380;SDS011;38310;52.796;6.942;2023-06-22T01:41:21;51.33;;;44.53;;
52380;SDS011;38310;52.796;6.942;2023-06-22T01:43:50;49.83;;;43.67;;
52380;SDS011;38310;52.796;6.942;2023-06-22T01:46:16;44.85;;;39.05;;
52380;SDS011;38310;52.796;6.942;2023-06-22T01:48:44;46.33;;;40.28;;
52380;SDS011;38310;52.796;6.942;2023-06-22T01:51:11;47.05;;;42.05;;
52380;SDS011;38310;52.796;6.942;2023-06-22T01:53:37;48.70;;;40.85;;
52380;SDS011;38310;52.796;6.942;2023-06-22T01:56:03;48.47;;;39.97;;
52380;SDS011;38310;52.796;6.942;2023-06-22T01:58:30;48.00;;;40.88;;
52380;SDS011;38310;52.796;6.942;2023-06-22T02:01:01;46.00;;;39.45;;
52380;SDS011;38310;52.796;6.942;2023-06-22T02:03:34;47.70;;;40.67;;
52380;SDS011;38310;52.796;6.942;2023-06-22T02:06:06;41.22;;;36.55;;
52380;SDS011;38310;52.796;6.942;2023-06-22T02:08:41;42.22;;;36.55;;
52380;SDS011;38310;52.796;6.942;2023-06-22T02:11:13;44.30;;;36.95;;
52380;SDS011;38310;52.796;6.942;2023-06-22T02:13:41;44.30;;;38.35;;
52380;SDS011;38310;52.796;6.942;2023-06-22T02:16:09;43.28;;;37.22;;
52380;SDS011;38310;52.796;6.942;2023-06-22T02:18:36;45.72;;;40.33;;
52380;SDS011;38310;52.796;6.942;2023-06-22T02:21:02;49.28;;;41.65;;
52380;SDS011;38310;52.796;6.942;2023-06-22T02:23:28;42.03;;;37.28;;
52380;SDS011;38310;52.796;6.942;2023-06-22T02:25:54;47.75;;;38.20;;
52380;SDS011;38310;52.796;6.942;2023-06-22T02:28:19;40.20;;;34.25;;
52380;SDS011;38310;52.796;6.942;2023-06-22T02:30:45;43.30;;;37.08;;
52380;SDS011;38310;52.796;6.942;2023-06-22T02:33:11;49.38;;;42.70;;
52380;SDS011;38310;52.796;6.942;2023-06-22T02:35:37;46.28;;;40.40;;
52380;SDS011;38310;52.796;6.942;2023-06-22T02:38:03;46.97;;;38.05;;
52380;SDS011;38310;52.796;6.942;2023-06-22T02:40:29;43.70;;;37.60;;
52380;SDS011;38310;52.796;6.942;2023-06-22T02:42:55;47.13;;;40.90;;
52380;SDS011;38310;52.796;6.942;2023-06-22T02:45:23;46.00;;;40.38;;
52380;SDS011;38310;52.796;6.942;2023-06-22T02:47:49;52.63;;;43.63;;
52380;SDS011;38310;52.796;6.942;2023-06-22T02:50:15;53.63;;;44.35;;
52380;SDS011;38310;52.796;6.942;2023-06-22T02:52:40;54.35;;;45.70;;
52380;SDS011;38310;52.796;6.942;2023-06-22T02:55:06;55.28;;;45.53;;
52380;SDS011;38310;52.796;6.942;2023-06-22T02:57:33;50.90;;;44.63;;
52380;SDS011;38310;52.796;6.942;2023-06-22T02:59:59;53.78;;;44.30;;
52380;SDS011;38310;52.796;6.942;2023-06-22T03:02:25;49.78;;;40.90;;
52380;SDS011;38310;52.796;6.942;2023-06-22T03:04:51;45.83;;;40.63;;
52380;SDS011;38310;52.796;6.942;2023-06-22T03:07:19;51.97;;;44.65;;
52380;SDS011;38310;52.796;6.942;2023-06-22T03:09:45;49.72;;;42.70;;
52380;SDS011;38310;52.796;6.942;2023-06-22T03:12:11;57.75;;;47.67;;
52380;SDS011;38310;52.796;6.942;2023-06-22T03:14:37;58.28;;;46.33;;
52380;SDS011;38310;52.796;6.942;2023-06-22T03:17:04;50.72;;;44.00;;
52380;SDS011;38310;52.796;6.942;2023-06-22T03:19:30;54.97;;;46.70;;
52380;SDS011;38310;52.796;6.942;2023-06-22T03:21:59;58.45;;;49.78;;
52380;SDS011;38310;52.796;6.942;2023-06-22T03:24:25;48.97;;;43.15;;
52380;SDS011;38310;52.796;6.942;2023-06-22T03:26:53;57.05;;;48.20;;
52380;SDS011;38310;52.796;6.942;2023-06-22T03:29:19;54.60;;;45.50;;
52380;SDS011;38310;52.796;6.942;2023-06-22T03:31:45;58.35;;;49.50;;
52380;SDS011;38310;52.796;6.942;2023-06-22T03:34:11;63.10;;;49.47;;
52380;SDS011;38310;52.796;6.942;2023-06-22T03:36:36;58.78;;;48.42;;
52380;SDS011;38310;52.796;6.942;2023-06-22T03:39:02;56.13;;;47.10;;
52380;SDS011;38310;52.796;6.942;2023-06-22T03:41:28;57.22;;;46.58;;
52380;SDS011;38310;52.796;6.942;2023-06-22T03:43:54;60.30;;;47.83;;
52380;SDS011;38310;52.796;6.942;2023-06-22T03:46:19;52.40;;;44.97;;
52380;SDS011;38310;52.796;6.942;2023-06-22T03:48:45;56.17;;;46.25;;
52380;SDS011;38310;52.796;6.942;2023-06-22T03:51:11;52.90;;;45.13;;
52380;SDS011;38310;52.796;6.942;2023-06-22T03:53:36;61.03;;;48.10;;
52380;SDS011;38310;52.796;6.942;2023-06-22T03:56:02;48.97;;;42.25;;
52380;SDS011;38310;52.796;6.942;2023-06-22T03:58:28;48.83;;;42.03;;
52380;SDS011;38310;52.796;6.942;2023-06-22T04:00:58;57.55;;;47.95;;
52380;SDS011;38310;52.796;6.942;2023-06-22T04:03:25;61.60;;;47.95;;
52380;SDS011;38310;52.796;6.942;2023-06-22T04:05:50;44.85;;;39.72;;
52380;SDS011;38310;52.796;6.942;2023-06-22T04:08:16;42.38;;;37.55;;
52380;SDS011;38310;52.796;6.942;2023-06-22T04:10:43;45.85;;;39.88;;
52380;SDS011;38310;52.796;6.942;2023-06-22T04:13:09;45.10;;;39.90;;
52380;SDS011;38310;52.796;6.942;2023-06-22T04:15:34;53.50;;;46.13;;
52380;SDS011;38310;52.796;6.942;2023-06-22T04:18:00;50.85;;;44.28;;
52380;SDS011;38310;52.796;6.942;2023-06-22T04:20:26;46.22;;;41.17;;
52380;SDS011;38310;52.796;6.942;2023-06-22T04:22:52;43.25;;;38.60;;
52380;SDS011;38310;52.796;6.942;2023-06-22T04:25:19;42.08;;;37.45;;
52380;SDS011;38310;52.796;6.942;2023-06-22T04:27:45;43.63;;;38.85;;
52380;SDS011;38310;52.796;6.942;2023-06-22T04:30:11;37.90;;;33.83;;
52380;SDS011;38310;52.796;6.942;2023-06-22T04:32:41;38.75;;;34.55;;
52380;SDS011;38310;52.796;6.942;2023-06-22T04:35:07;38.30;;;34.17;;
52380;SDS011;38310;52.796;6.942;2023-06-22T04:37:33;37.65;;;33.78;;
52380;SDS011;38310;52.796;6.942;2023-06-22T04:39:59;43.50;;;38.80;;
52380;SDS011;38310;52.796;6.942;2023-06-22T04:42:28;45.85;;;40.92;;
52380;SDS011;38310;52.796;6.942;2023-06-22T04:44:54;41.95;;;36.92;;
52380;SDS011;38310;52.796;6.942;2023-06-22T04:47:19;40.72;;;36.35;;
52380;SDS011;38310;52.796;6.942;2023-06-22T04:49:45;44.40;;;39.08;;
52380;SDS011;38310;52.796;6.942;2023-06-22T04:52:12;41.00;;;36.63;;
52380;SDS011;38310;52.796;6.942;2023-06-22T04:54:39;41.45;;;37.05;;
52380;SDS011;38310;52.796;6.942;2023-06-22T04:57:12;38.38;;;34.20;;
52380;SDS011;38310;52.796;6.942;2023-06-22T04:59:39;50.67;;;41.33;;
52380;SDS011;38310;52.796;6.942;2023-06-22T05:02:06;39.88;;;35.72;;
52380;SDS011;38310;52.796;6.942;2023-06-22T05:04:33;41.30;;;37.05;;
52380;SDS011;38310;52.796;6.942;2023-06-22T05:07:03;47.53;;;42.28;;
52380;SDS011;38310;52.796;6.942;2023-06-22T05:09:29;51.15;;;45.40;;
52380;SDS011;38310;52.796;6.942;2023-06-22T05:11:55;39.65;;;35.33;;
52380;SDS011;38310;52.796;6.942;2023-06-22T05:14:21;47.10;;;41.22;;
52380;SDS011;38310;52.796;6.942;2023-06-22T05:16:48;46.50;;;41.22;;
52380;SDS011;38310;52.796;6.942;2023-06-22T05:19:14;48.55;;;43.15;;
52380;SDS011;38310;52.796;6.942;2023-06-22T05:21:40;47.95;;;41.65;;
52380;SDS011;38310;52.796;6.942;2023-06-22T05:24:06;52.05;;;43.13;;
52380;SDS011;38310;52.796;6.942;2023-06-22T05:26:33;39.58;;;34.65;;
52380;SDS011;38310;52.796;6.942;2023-06-22T05:29:00;46.03;;;41.15;;
52380;SDS011;38310;52.796;6.942;2023-06-22T05:31:27;48.13;;;42.63;;
52380;SDS011;38310;52.796;6.942;2023-06-22T05:33:53;49.55;;;42.63;;
52380;SDS011;38310;52.796;6.942;2023-06-22T05:36:20;47.78;;;39.80;;
52380;SDS011;38310;52.796;6.942;2023-06-22T05:38:50;62.90;;;51.08;;
52380;SDS011;38310;52.796;6.942;2023-06-22T05:41:16;48.13;;;41.20;;
52380;SDS011;38310;52.796;6.942;2023-06-22T05:43:42;54.83;;;46.33;;
52380;SDS011;38310;52.796;6.942;2023-06-22T05:46:08;57.78;;;48.25;;
52380;SDS011;38310;52.796;6.942;2023-06-22T05:48:34;65.43;;;52.92;;
52380;SDS011;38310;52.796;6.942;2023-06-22T05:51:00;58.90;;;47.85;;
52380;SDS011;38310;52.796;6.942;2023-06-22T05:53:25;65.22;;;53.42;;
52380;SDS011;38310;52.796;6.942;2023-06-22T05:55:51;60.83;;;49.17;;
52380;SDS011;38310;52.796;6.942;2023-06-22T05:58:17;59.47;;;48.47;;
52380;SDS011;38310;52.796;6.942;2023-06-22T06:00:43;59.00;;;45.40;;
52380;SDS011;38310;52.796;6.942;2023-06-22T06:03:09;58.55;;;48.55;;
52380;SDS011;38310;52.796;6.942;2023-06-22T06:05:35;58.63;;;46.83;;
52380;SDS011;38310;52.796;6.942;2023-06-22T06:08:03;55.63;;;44.65;;
52380;SDS011;38310;52.796;6.942;2023-06-22T06:10:33;57.38;;;46.28;;
52380;SDS011;38310;52.796;6.942;2023-06-22T06:13:00;47.03;;;38.80;;
52380;SDS011;38310;52.796;6.942;2023-06-22T06:15:29;48.97;;;39.72;;
52380;SDS011;38310;52.796;6.942;2023-06-22T06:17:56;56.58;;;43.72;;
52380;SDS011;38310;52.796;6.942;2023-06-22T06:20:22;48.22;;;38.88;;
52380;SDS011;38310;52.796;6.942;2023-06-22T06:22:49;55.08;;;43.08;;
52380;SDS011;38310;52.796;6.942;2023-06-22T06:25:15;51.08;;;38.72;;
52380;SDS011;38310;52.796;6.942;2023-06-22T06:27:45;50.58;;;39.50;;
52380;SDS011;38310;52.796;6.942;2023-06-22T06:30:11;48.05;;;38.58;;
52380;SDS011;38310;52.796;6.942;2023-06-22T06:32:38;46.58;;;36.15;;
52380;SDS011;38310;52.796;6.942;2023-06-22T06:35:05;46.85;;;35.63;;
52380;SDS011;38310;52.796;6.942;2023-06-22T06:37:35;46.17;;;34.35;;
52380;SDS011;38310;52.796;6.942;2023-06-22T06:40:03;43.85;;;34.03;;
52380;SDS011;38310;52.796;6.942;2023-06-22T06:42:31;36.60;;;27.98;;
52380;SDS011;38310;52.796;6.942;2023-06-22T06:44:56;35.92;;;28.73;;
52380;SDS011;38310;52.796;6.942;2023-06-22T06:47:22;32.47;;;25.90;;
52380;SDS011;38310;52.796;6.942;2023-06-22T06:49:48;36.90;;;28.23;;
52380;SDS011;38310;52.796;6.942;2023-06-22T06:52:14;33.50;;;27.38;;
52380;SDS011;38310;52.796;6.942;2023-06-22T06:54:39;32.55;;;24.80;;
52380;SDS011;38310;52.796;6.942;2023-06-22T06:57:07;29.90;;;24.25;;
52380;SDS011;38310;52.796;6.942;2023-06-22T06:59:35;30.70;;;26.08;;
52380;SDS011;38310;52.796;6.942;2023-06-22T07:02:01;29.90;;;22.60;;
52380;SDS011;38310;52.796;6.942;2023-06-22T07:04:27;26.90;;;22.27;;
52380;SDS011;38310;52.796;6.942;2023-06-22T07:06:53;28.48;;;22.33;;
52380;SDS011;38310;52.796;6.942;2023-06-22T07:09:18;26.65;;;22.23;;
52380;SDS011;38310;52.796;6.942;2023-06-22T07:11:44;31.27;;;24.45;;
52380;SDS011;38310;52.796;6.942;2023-06-22T07:14:10;27.33;;;23.55;;
52380;SDS011;38310;52.796;6.942;2023-06-22T07:16:35;27.73;;;22.05;;
52380;SDS011;38310;52.796;6.942;2023-06-22T07:19:01;25.15;;;21.05;;
52380;SDS011;38310;52.796;6.942;2023-06-22T07:21:27;31.60;;;23.02;;
52380;SDS011;38310;52.796;6.942;2023-06-22T07:23:52;28.52;;;21.95;;
52380;SDS011;38310;52.796;6.942;2023-06-22T07:26:19;24.08;;;19.13;;
52380;SDS011;38310;52.796;6.942;2023-06-22T07:28:45;27.17;;;20.77;;
52380;SDS011;38310;52.796;6.942;2023-06-22T07:31:10;24.70;;;17.00;;
52380;SDS011;38310;52.796;6.942;2023-06-22T07:33:36;18.55;;;15.23;;
52380;SDS011;38310;52.796;6.942;2023-06-22T07:36:02;19.60;;;16.83;;
52380;SDS011;38310;52.796;6.942;2023-06-22T07:38:32;17.10;;;14.43;;
52380;SDS011;38310;52.796;6.942;2023-06-22T07:40:59;17.65;;;14.68;;
52380;SDS011;38310;52.796;6.942;2023-06-22T07:43:25;19.83;;;15.00;;
52380;SDS011;38310;52.796;6.942;2023-06-22T07:45:51;17.30;;;14.15;;
52380;SDS011;38310;52.796;6.942;2023-06-22T07:48:19;19.45;;;14.93;;
52380;SDS011;38310;52.796;6.942;2023-06-22T07:50:46;19.58;;;15.75;;
52380;SDS011;38310;52.796;6.942;2023-06-22T07:53:12;16.20;;;12.45;;
52380;SDS011;38310;52.796;6.942;2023-06-22T07:55:37;14.30;;;12.25;;
52380;SDS011;38310;52.796;6.942;2023-06-22T07:58:03;15.32;;;12.48;;
52380;SDS011;38310;52.796;6.942;2023-06-22T08:00:28;18.52;;;12.73;;
52380;SDS011;38310;52.796;6.942;2023-06-22T08:02:54;17.27;;;13.70;;
52380;SDS011;38310;52.796;6.942;2023-06-22T08:05:20;18.35;;;12.45;;
52380;SDS011;38310;52.796;6.942;2023-06-22T08:07:46;17.58;;;14.15;;
52380;SDS011;38310;52.796;6.942;2023-06-22T08:10:12;17.38;;;13.70;;
52380;SDS011;38310;52.796;6.942;2023-06-22T08:12:41;15.43;;;11.68;;
52380;SDS011;38310;52.796;6.942;2023-06-22T08:15:07;18.25;;;12.55;;
52380;SDS011;38310;52.796;6.942;2023-06-22T08:17:35;16.38;;;12.93;;
52380;SDS011;38310;52.796;6.942;2023-06-22T08:20:02;15.52;;;12.00;;
52380;SDS011;38310;52.796;6.942;2023-06-22T08:22:34;15.77;;;12.80;;
52380;SDS011;38310;52.796;6.942;2023-06-22T08:25:01;14.18;;;11.13;;
52380;SDS011;38310;52.796;6.942;2023-06-22T08:27:29;13.93;;;10.43;;
52380;SDS011;38310;52.796;6.942;2023-06-22T08:29:56;17.23;;;11.82;;
52380;SDS011;38310;52.796;6.942;2023-06-22T08:32:26;13.57;;;10.70;;
52380;SDS011;38310;52.796;6.942;2023-06-22T08:34:53;15.00;;;10.60;;
52380;SDS011;38310;52.796;6.942;2023-06-22T08:37:19;13.85;;;10.25;;
52380;SDS011;38310;52.796;6.942;2023-06-22T08:39:45;11.05;;;8.88;;
52380;SDS011;38310;52.796;6.942;2023-06-22T08:42:11;12.75;;;9.38;;
52380;SDS011;38310;52.796;6.942;2023-06-22T08:44:37;16.27;;;10.65;;
52380;SDS011;38310;52.796;6.942;2023-06-22T08:47:03;13.02;;;9.32;;
52380;SDS011;38310;52.796;6.942;2023-06-22T08:49:29;12.25;;;8.60;;
52380;SDS011;38310;52.796;6.942;2023-06-22T08:51:55;12.98;;;9.52;;
52380;SDS011;38310;52.796;6.942;2023-06-22T08:54:22;11.93;;;8.60;;
52380;SDS011;38310;52.796;6.942;2023-06-22T08:56:48;14.18;;;10.60;;
52380;SDS011;38310;52.796;6.942;2023-06-22T08:59:14;16.70;;;8.32;;
52380;SDS011;38310;52.796;6.942;2023-06-22T09:01:39;13.38;;;10.43;;
52380;SDS011;38310;52.796;6.942;2023-06-22T09:04:05;11.65;;;8.73;;
52380;SDS011;38310;52.796;6.942;2023-06-22T09:06:34;12.02;;;9.10;;
52380;SDS011;38310;52.796;6.942;2023-06-22T09:09:00;11.35;;;8.77;;
52380;SDS011;38310;52.796;6.942;2023-06-22T09:11:25;12.27;;;9.68;;
52380;SDS011;38310;52.796;6.942;2023-06-22T09:13:51;14.18;;;11.00;;
52380;SDS011;38310;52.796;6.942;2023-06-22T09:16:18;10.63;;;8.60;;
52380;SDS011;38310;52.796;6.942;2023-06-22T09:18:47;12.43;;;8.93;;
52380;SDS011;38310;52.796;6.942;2023-06-22T09:21:14;11.73;;;8.38;;
52380;SDS011;38310;52.796;6.942;2023-06-22T09:23:40;12.93;;;8.13;;
52380;SDS011;38310;52.796;6.942;2023-06-22T09:26:05;11.82;;;8.82;;
52380;SDS011;38310;52.796;6.942;2023-06-22T09:28:31;11.57;;;8.82;;
52380;SDS011;38310;52.796;6.942;2023-06-22T09:30:58;10.57;;;8.30;;
52380;SDS011;38310;52.796;6.942;2023-06-22T09:33:25;11.63;;;8.77;;
52380;SDS011;38310;52.796;6.942;2023-06-22T09:35:51;10.77;;;7.80;;
52380;SDS011;38310;52.796;6.942;2023-06-22T09:38:17;10.65;;;7.60;;
52380;SDS011;38310;52.796;6.942;2023-06-22T09:40:43;7.88;;;6.88;;
52380;SDS011;38310;52.796;6.942;2023-06-22T09:43:09;12.77;;;7.93;;
52380;SDS011;38310;52.796;6.942;2023-06-22T09:45:36;11.18;;;8.77;;
52380;SDS011;38310;52.796;6.942;2023-06-22T09:48:02;9.82;;;7.65;;
52380;SDS011;38310;52.796;6.942;2023-06-22T09:50:28;10.77;;;7.90;;
52380;SDS011;38310;52.796;6.942;2023-06-22T09:52:53;10.63;;;7.25;;
52380;SDS011;38310;52.796;6.942;2023-06-22T09:55:20;9.43;;;7.57;;
52380;SDS011;38310;52.796;6.942;2023-06-22T09:57:46;10.25;;;8.00;;
52380;SDS011;38310;52.796;6.942;2023-06-22T10:00:13;10.23;;;6.55;;
52380;SDS011;38310;52.796;6.942;2023-06-22T10:02:43;12.43;;;8.30;;
52380;SDS011;38310;52.796;6.942;2023-06-22T10:05:09;11.38;;;7.65;;
52380;SDS011;38310;52.796;6.942;2023-06-22T10:07:35;9.02;;;7.35;;
52380;SDS011;38310;52.796;6.942;2023-06-22T10:10:05;9.50;;;6.22;;
52380;SDS011;38310;52.796;6.942;2023-06-22T10:12:31;10.57;;;7.53;;
52380;SDS011;38310;52.796;6.942;2023-06-22T10:14:57;11.70;;;7.68;;
52380;SDS011;38310;52.796;6.942;2023-06-22T10:17:23;8.63;;;6.05;;
52380;SDS011;38310;52.796;6.942;2023-06-22T10:19:49;10.57;;;7.78;;
52380;SDS011;38310;52.796;6.942;2023-06-22T10:22:14;11.50;;;6.70;;
52380;SDS011;38310;52.796;6.942;2023-06-22T10:24:40;9.23;;;5.85;;
52380;SDS011;38310;52.796;6.942;2023-06-22T10:27:12;12.95;;;6.70;;
52380;SDS011;38310;52.796;6.942;2023-06-22T10:29:38;10.40;;;7.07;;
52380;SDS011;38310;52.796;6.942;2023-06-22T10:32:04;9.85;;;6.60;;
52380;SDS011;38310;52.796;6.942;2023-06-22T10:34:31;9.82;;;6.57;;
52380;SDS011;38310;52.796;6.942;2023-06-22T10:36:56;10.27;;;6.05;;
52380;SDS011;38310;52.796;6.942;2023-06-22T10:39:22;9.10;;;6.88;;
52380;SDS011;38310;52.796;6.942;2023-06-22T10:41:48;9.60;;;6.82;;
52380;SDS011;38310;52.796;6.942;2023-06-22T10:44:13;9.45;;;6.68;;
52380;SDS011;38310;52.796;6.942;2023-06-22T10:46:39;10.88;;;8.05;;
52380;SDS011;38310;52.796;6.942;2023-06-22T10:49:05;8.23;;;5.50;;
52380;SDS011;38310;52.796;6.942;2023-06-22T10:51:31;9.40;;;6.28;;
52380;SDS011;38310;52.796;6.942;2023-06-22T10:53:57;8.23;;;6.35;;
52380;SDS011;38310;52.796;6.942;2023-06-22T10:56:23;8.65;;;5.75;;
52380;SDS011;38310;52.796;6.942;2023-06-22T10:58:49;12.85;;;6.85;;
52380;SDS011;38310;52.796;6.942;2023-06-22T11:01:15;8.77;;;7.18;;
52380;SDS011;38310;52.796;6.942;2023-06-22T11:03:40;7.22;;;5.75;;
52380;SDS011;38310;52.796;6.942;2023-06-22T11:06:06;8.40;;;5.65;;
52380;SDS011;38310;52.796;6.942;2023-06-22T11:08:32;8.77;;;5.00;;
52380;SDS011;38310;52.796;6.942;2023-06-22T11:10:57;6.65;;;5.30;;
52380;SDS011;38310;52.796;6.942;2023-06-22T11:13:23;10.80;;;6.05;;
52380;SDS011;38310;52.796;6.942;2023-06-22T11:15:50;7.10;;;5.47;;
52380;SDS011;38310;52.796;6.942;2023-06-22T11:18:15;8.80;;;5.50;;
52380;SDS011;38310;52.796;6.942;2023-06-22T11:20:41;9.90;;;5.05;;
52380;SDS011;38310;52.796;6.942;2023-06-22T11:23:07;8.40;;;5.75;;
52380;SDS011;38310;52.796;6.942;2023-06-22T11:25:33;6.30;;;4.85;;
52380;SDS011;38310;52.796;6.942;2023-06-22T11:28:03;8.32;;;5.57;;
52380;SDS011;38310;52.796;6.942;2023-06-22T11:30:29;5.57;;;4.13;;
52380;SDS011;38310;52.796;6.942;2023-06-22T11:32:58;7.10;;;5.47;;
52380;SDS011;38310;52.796;6.942;2023-06-22T11:35:24;8.23;;;5.82;;
52380;SDS011;38310;52.796;6.942;2023-06-22T11:37:50;9.05;;;5.40;;
52380;SDS011;38310;52.796;6.942;2023-06-22T11:40:16;6.90;;;5.10;;
52380;SDS011;38310;52.796;6.942;2023-06-22T11:42:42;6.95;;;4.88;;
52380;SDS011;38310;52.796;6.942;2023-06-22T11:45:08;6.75;;;4.20;;
52380;SDS011;38310;52.796;6.942;2023-06-22T11:47:34;5.55;;;4.47;;
52380;SDS011;38310;52.796;6.942;2023-06-22T11:50:01;7.13;;;5.28;;
52380;SDS011;38310;52.796;6.942;2023-06-22T11:52:28;8.95;;;5.10;;
52380;SDS011;38310;52.796;6.942;2023-06-22T11:54:53;6.97;;;4.43;;
52380;SDS011;38310;52.796;6.942;2023-06-22T11:57:19;5.82;;;4.28;;
52380;SDS011;38310;52.796;6.942;2023-06-22T11:59:45;6.72;;;4.45;;
52380;SDS011;38310;52.796;6.942;2023-06-22T12:02:10;9.57;;;4.40;;
52380;SDS011;38310;52.796;6.942;2023-06-22T12:04:36;6.78;;;5.10;;
52380;SDS011;38310;52.796;6.942;2023-06-22T12:07:03;7.63;;;4.28;;
52380;SDS011;38310;52.796;6.942;2023-06-22T12:09:28;5.60;;;4.45;;
52380;SDS011;38310;52.796;6.942;2023-06-22T12:11:54;7.63;;;5.30;;
52380;SDS011;38310;52.796;6.942;2023-06-22T12:14:20;5.90;;;3.95;;
52380;SDS011;38310;52.796;6.942;2023-06-22T12:16:46;5.15;;;3.90;;
52380;SDS011;38310;52.796;6.942;2023-06-22T12:19:12;7.45;;;4.40;;
52380;SDS011;38310;52.796;6.942;2023-06-22T12:21:37;4.95;;;3.88;;
52380;SDS011;38310;52.796;6.942;2023-06-22T12:24:05;7.13;;;4.78;;
52380;SDS011;38310;52.796;6.942;2023-06-22T12:26:31;6.68;;;5.20;;
52380;SDS011;38310;52.796;6.942;2023-06-22T12:28:57;7.57;;;4.45;;
52380;SDS011;38310;52.796;6.942;2023-06-22T12:31:22;6.68;;;4.05;;
52380;SDS011;38310;52.796;6.942;2023-06-22T12:33:48;6.90;;;4.72;;
52380;SDS011;38310;52.796;6.942;2023-06-22T12:36:14;7.35;;;3.53;;
52380;SDS011;38310;52.796;6.942;2023-06-22T12:38:41;8.27;;;5.47;;
52380;SDS011;38310;52.796;6.942;2023-06-22T12:41:07;5.72;;;4.13;;
52380;SDS011;38310;52.796;6.942;2023-06-22T12:43:33;5.57;;;4.22;;
52380;SDS011;38310;52.796;6.942;2023-06-22T12:45:59;5.60;;;3.92;;
52380;SDS011;38310;52.796;6.942;2023-06-22T12:48:25;6.63;;;4.55;;
52380;SDS011;38310;52.796;6.942;2023-06-22T12:50:52;6.32;;;4.53;;
52380;SDS011;38310;52.796;6.942;2023-06-22T12:53:18;5.28;;;3.85;;
52380;SDS011;38310;52.796;6.942;2023-06-22T12:55:44;5.70;;;4.07;;
52380;SDS011;38310;52.796;6.942;2023-06-22T12:58:09;6.93;;;4.93;;
52380;SDS011;38310;52.796;6.942;2023-06-22T13:00:35;7.30;;;4.43;;
52380;SDS011;38310;52.796;6.942;2023-06-22T13:03:01;6.85;;;4.15;;
52380;SDS011;38310;52.796;6.942;2023-06-22T13:05:27;9.18;;;4.10;;
52380;SDS011;38310;52.796;6.942;2023-06-22T13:07:52;7.15;;;4.20;;
52380;SDS011;38310;52.796;6.942;2023-06-22T13:10:18;6.40;;;4.65;;
52380;SDS011;38310;52.796;6.942;2023-06-22T13:12:44;8.48;;;4.40;;
52380;SDS011;38310;52.796;6.942;2023-06-22T13:15:09;7.35;;;4.43;;
52380;SDS011;38310;52.796;6.942;2023-06-22T13:17:35;5.63;;;4.18;;
52380;SDS011;38310;52.796;6.942;2023-06-22T13:20:01;6.22;;;3.70;;
52380;SDS011;38310;52.796;6.942;2023-06-22T13:22:33;5.43;;;3.80;;
52380;SDS011;38310;52.796;6.942;2023-06-22T13:25:05;6.22;;;4.32;;
52380;SDS011;38310;52.796;6.942;2023-06-22T13:27:31;5.88;;;3.75;;
52380;SDS011;38310;52.796;6.942;2023-06-22T13:29:57;8.82;;;3.90;;
52380;SDS011;38310;52.796;6.942;2023-06-22T13:32:23;6.75;;;4.75;;
52380;SDS011;38310;52.796;6.942;2023-06-22T13:34:48;7.93;;;4.72;;
52380;SDS011;38310;52.796;6.942;2023-06-22T13:37:14;5.80;;;3.50;;
52380;SDS011;38310;52.796;6.942;2023-06-22T13:39:40;6.15;;;3.78;;
52380;SDS011;38310;52.796;6.942;2023-06-22T13:42:06;5.47;;;3.70;;
52380;SDS011;38310;52.796;6.942;2023-06-22T13:44:32;5.78;;;4.18;;
52380;SDS011;38310;52.796;6.942;2023-06-22T13:46:58;5.32;;;3.97;;
52380;SDS011;38310;52.796;6.942;2023-06-22T13:49:23;6.35;;;3.88;;
52380;SDS011;38310;52.796;6.942;2023-06-22T13:51:49;6.25;;;3.60;;
52380;SDS011;38310;52.796;6.942;2023-06-22T13:54:15;7.63;;;3.75;;
52380;SDS011;38310;52.796;6.942;2023-06-22T13:56:42;5.13;;;4.03;;
52380;SDS011;38310;52.796;6.942;2023-06-22T13:59:07;5.10;;;3.42;;
52380;SDS011;38310;52.796;6.942;2023-06-22T14:01:35;7.22;;;4.38;;
52380;SDS011;38310;52.796;6.942;2023-06-22T14:04:01;9.20;;;3.90;;
52380;SDS011;38310;52.796;6.942;2023-06-22T14:06:27;7.05;;;4.20;;
52380;SDS011;38310;52.796;6.942;2023-06-22T14:08:53;6.78;;;4.07;;
52380;SDS011;38310;52.796;6.942;2023-06-22T14:11:19;6.57;;;4.07;;
52380;SDS011;38310;52.796;6.942;2023-06-22T14:13:44;6.72;;;4.40;;
52380;SDS011;38310;52.796;6.942;2023-06-22T14:16:10;7.80;;;5.00;;
52380;SDS011;38310;52.796;6.942;2023-06-22T14:18:36;7.68;;;4.47;;
52380;SDS011;38310;52.796;6.942;2023-06-22T14:21:01;6.80;;;4.50;;
52380;SDS011;38310;52.796;6.942;2023-06-22T14:23:27;7.97;;;4.85;;
52380;SDS011;38310;52.796;6.942;2023-06-22T14:25:53;7.22;;;4.50;;
52380;SDS011;38310;52.796;6.942;2023-06-22T14:28:19;6.22;;;4.82;;
52380;SDS011;38310;52.796;6.942;2023-06-22T14:30:44;7.28;;;5.55;;
52380;SDS011;38310;52.796;6.942;2023-06-22T14:33:10;6.75;;;5.45;;